sensor_id;sensor_type;location;lat;lon;timestamp;P1;durP1;ratioP1;P2;durP2;ratioP2
75456;SDS011;64036;48.266;14.192;2023-11-22T00:02:08;9.20;;;5.80;;
75456;SDS011;64036;48.266;14.192;2023-11-22T00:04:33;11.20;;;7.40;;
75456;SDS011;64036;48.266;14.192;2023-11-22T00:07:02;10.90;;;7.10;;
75456;SDS011;64036;48.266;14.192;2023-11-22T00:09:27;16.00;;;8.80;;
75456;SDS011;64036;48.266;14.192;2023-11-22T00:11:53;11.00;;;8.00;;
75456;SDS011;64036;48.266;14.192;2023-11-22T00:14:19;12.40;;;8.00;;
75456;SDS011;64036;48.266;14.192;2023-11-22T00:16:55;12.30;;;9.80;;
75456;SDS011;64036;48.266;14.192;2023-11-22T00:19:37;11.40;;;8.30;;
75456;SDS011;64036;48.266;14.192;2023-11-22T00:22:21;12.00;;;7.50;;
75456;SDS011;64036;48.266;14.192;2023-11-22T00:25:06;10.30;;;6.30;;
75456;SDS011;64036;48.266;14.192;2023-11-22T00:27:44;10.80;;;6.50;;
75456;SDS011;64036;48.266;14.192;2023-11-22T00:30:16;9.80;;;5.90;;
75456;SDS011;64036;48.266;14.192;2023-11-22T00:32:42;8.20;;;5.80;;
75456;SDS011;64036;48.266;14.192;2023-11-22T00:35:08;10.30;;;6.00;;
75456;SDS011;64036;48.266;14.192;2023-11-22T00:37:37;7.50;;;5.00;;
75456;SDS011;64036;48.266;14.192;2023-11-22T00:40:14;8.30;;;5.40;;
75456;SDS011;64036;48.266;14.192;2023-11-22T00:42:52;7.70;;;5.20;;
75456;SDS011;64036;48.266;14.192;2023-11-22T00:45:18;6.80;;;5.00;;
75456;SDS011;64036;48.266;14.192;2023-11-22T00:47:44;10.00;;;5.40;;
75456;SDS011;64036;48.266;14.192;2023-11-22T00:50:10;6.70;;;4.90;;
75456;SDS011;64036;48.266;14.192;2023-11-22T00:52:41;6.50;;;4.20;;
75456;SDS011;64036;48.266;14.192;2023-11-22T00:55:10;7.50;;;5.50;;
75456;SDS011;64036;48.266;14.192;2023-11-22T00:57:36;7.40;;;5.20;;
75456;SDS011;64036;48.266;14.192;2023-11-22T01:00:02;6.80;;;4.70;;
75456;SDS011;64036;48.266;14.192;2023-11-22T01:02:30;7.40;;;4.80;;
75456;SDS011;64036;48.266;14.192;2023-11-22T01:04:55;8.40;;;5.50;;
75456;SDS011;64036;48.266;14.192;2023-11-22T01:07:23;8.40;;;5.60;;
75456;SDS011;64036;48.266;14.192;2023-11-22T01:09:49;8.60;;;5.70;;
75456;SDS011;64036;48.266;14.192;2023-11-22T01:12:29;8.60;;;5.60;;
75456;SDS011;64036;48.266;14.192;2023-11-22T01:14:57;8.10;;;5.60;;
75456;SDS011;64036;48.266;14.192;2023-11-22T01:17:33;9.30;;;5.70;;
75456;SDS011;64036;48.266;14.192;2023-11-22T01:20:05;8.30;;;5.70;;
75456;SDS011;64036;48.266;14.192;2023-11-22T01:22:45;7.40;;;4.60;;
75456;SDS011;64036;48.266;14.192;2023-11-22T01:25:16;8.50;;;5.00;;
75456;SDS011;64036;48.266;14.192;2023-11-22T01:27:50;6.40;;;4.00;;
75456;SDS011;64036;48.266;14.192;2023-11-22T01:30:16;5.60;;;3.80;;
75456;SDS011;64036;48.266;14.192;2023-11-22T01:32:43;5.00;;;3.40;;
75456;SDS011;64036;48.266;14.192;2023-11-22T01:35:10;6.80;;;3.80;;
75456;SDS011;64036;48.266;14.192;2023-11-22T01:37:47;6.50;;;3.90;;
75456;SDS011;64036;48.266;14.192;2023-11-22T01:40:27;6.10;;;3.80;;
75456;SDS011;64036;48.266;14.192;2023-11-22T01:42:52;4.60;;;3.00;;
75456;SDS011;64036;48.266;14.192;2023-11-22T01:45:19;5.10;;;3.30;;
75456;SDS011;64036;48.266;14.192;2023-11-22T01:47:45;4.70;;;3.00;;
75456;SDS011;64036;48.266;14.192;2023-11-22T01:50:12;5.00;;;3.00;;
75456;SDS011;64036;48.266;14.192;2023-11-22T01:52:40;6.70;;;2.90;;
75456;SDS011;64036;48.266;14.192;2023-11-22T01:55:08;4.60;;;2.70;;
75456;SDS011;64036;48.266;14.192;2023-11-22T01:57:45;4.10;;;2.80;;
75456;SDS011;64036;48.266;14.192;2023-11-22T02:00:26;4.20;;;2.60;;
75456;SDS011;64036;48.266;14.192;2023-11-22T02:02:53;4.70;;;2.70;;
75456;SDS011;64036;48.266;14.192;2023-11-22T02:05:19;4.60;;;2.80;;
75456;SDS011;64036;48.266;14.192;2023-11-22T02:07:44;4.00;;;2.40;;
75456;SDS011;64036;48.266;14.192;2023-11-22T02:10:10;3.90;;;2.40;;
75456;SDS011;64036;48.266;14.192;2023-11-22T02:12:36;4.90;;;3.10;;
75456;SDS011;64036;48.266;14.192;2023-11-22T02:15:03;3.90;;;2.30;;
75456;SDS011;64036;48.266;14.192;2023-11-22T02:17:29;4.20;;;2.70;;
75456;SDS011;64036;48.266;14.192;2023-11-22T02:20:10;4.90;;;2.90;;
75456;SDS011;64036;48.266;14.192;2023-11-22T02:23:19;4.50;;;2.80;;
75456;SDS011;64036;48.266;14.192;2023-11-22T02:26:09;6.20;;;2.70;;
75456;SDS011;64036;48.266;14.192;2023-11-22T02:28:48;5.00;;;2.90;;
75456;SDS011;64036;48.266;14.192;2023-11-22T02:31:40;4.60;;;2.80;;
75456;SDS011;64036;48.266;14.192;2023-11-22T02:34:29;3.70;;;2.50;;
75456;SDS011;64036;48.266;14.192;2023-11-22T02:36:57;5.20;;;2.60;;
75456;SDS011;64036;48.266;14.192;2023-11-22T02:39:33;4.80;;;2.70;;
75456;SDS011;64036;48.266;14.192;2023-11-22T02:42:06;5.20;;;3.10;;
75456;SDS011;64036;48.266;14.192;2023-11-22T02:44:34;4.40;;;2.60;;
75456;SDS011;64036;48.266;14.192;2023-11-22T02:46:59;4.60;;;2.70;;
75456;SDS011;64036;48.266;14.192;2023-11-22T02:49:35;4.10;;;2.60;;
75456;SDS011;64036;48.266;14.192;2023-11-22T02:52:16;6.70;;;3.00;;
75456;SDS011;64036;48.266;14.192;2023-11-22T02:55:08;5.00;;;2.80;;
75456;SDS011;64036;48.266;14.192;2023-11-22T02:57:58;4.50;;;2.90;;
75456;SDS011;64036;48.266;14.192;2023-11-22T03:01:10;4.50;;;2.60;;
75456;SDS011;64036;48.266;14.192;2023-11-22T03:04:03;4.60;;;2.90;;
75456;SDS011;64036;48.266;14.192;2023-11-22T03:07:16;5.10;;;3.40;;
75456;SDS011;64036;48.266;14.192;2023-11-22T03:10:01;4.80;;;2.70;;
75456;SDS011;64036;48.266;14.192;2023-11-22T03:12:39;4.40;;;2.60;;
75456;SDS011;64036;48.266;14.192;2023-11-22T03:15:05;5.10;;;2.90;;
75456;SDS011;64036;48.266;14.192;2023-11-22T03:17:51;4.20;;;2.40;;
75456;SDS011;64036;48.266;14.192;2023-11-22T03:20:20;6.30;;;3.00;;
75456;SDS011;64036;48.266;14.192;2023-11-22T03:22:46;4.30;;;2.40;;
75456;SDS011;64036;48.266;14.192;2023-11-22T03:25:16;5.10;;;2.80;;
75456;SDS011;64036;48.266;14.192;2023-11-22T03:27:59;4.10;;;2.50;;
75456;SDS011;64036;48.266;14.192;2023-11-22T03:30:47;4.50;;;2.50;;
75456;SDS011;64036;48.266;14.192;2023-11-22T03:33:29;5.10;;;2.40;;
75456;SDS011;64036;48.266;14.192;2023-11-22T03:36:26;3.20;;;2.10;;
75456;SDS011;64036;48.266;14.192;2023-11-22T03:39:15;5.80;;;2.90;;
75456;SDS011;64036;48.266;14.192;2023-11-22T03:41:42;5.20;;;2.80;;
75456;SDS011;64036;48.266;14.192;2023-11-22T03:44:15;5.50;;;3.10;;
75456;SDS011;64036;48.266;14.192;2023-11-22T03:46:41;5.10;;;2.70;;
75456;SDS011;64036;48.266;14.192;2023-11-22T03:49:07;5.20;;;2.60;;
75456;SDS011;64036;48.266;14.192;2023-11-22T03:51:34;4.80;;;2.50;;
75456;SDS011;64036;48.266;14.192;2023-11-22T03:54:01;3.70;;;2.20;;
75456;SDS011;64036;48.266;14.192;2023-11-22T03:56:28;3.10;;;2.30;;
75456;SDS011;64036;48.266;14.192;2023-11-22T03:58:55;5.40;;;2.20;;
75456;SDS011;64036;48.266;14.192;2023-11-22T04:01:21;4.70;;;2.30;;
75456;SDS011;64036;48.266;14.192;2023-11-22T04:03:53;3.90;;;2.40;;
75456;SDS011;64036;48.266;14.192;2023-11-22T04:06:19;3.50;;;2.40;;
75456;SDS011;64036;48.266;14.192;2023-11-22T04:08:46;3.80;;;2.20;;
75456;SDS011;64036;48.266;14.192;2023-11-22T04:11:13;3.70;;;2.10;;
75456;SDS011;64036;48.266;14.192;2023-11-22T04:13:39;3.30;;;2.10;;
75456;SDS011;64036;48.266;14.192;2023-11-22T04:16:13;4.00;;;2.60;;
75456;SDS011;64036;48.266;14.192;2023-11-22T04:18:43;3.00;;;2.10;;
75456;SDS011;64036;48.266;14.192;2023-11-22T04:21:14;4.40;;;2.50;;
75456;SDS011;64036;48.266;14.192;2023-11-22T04:23:40;4.40;;;2.30;;
75456;SDS011;64036;48.266;14.192;2023-11-22T04:26:05;3.50;;;2.20;;
75456;SDS011;64036;48.266;14.192;2023-11-22T04:28:33;4.40;;;2.50;;
75456;SDS011;64036;48.266;14.192;2023-11-22T04:31:00;4.60;;;2.40;;
75456;SDS011;64036;48.266;14.192;2023-11-22T04:33:37;3.80;;;2.40;;
75456;SDS011;64036;48.266;14.192;2023-11-22T04:36:03;3.80;;;2.40;;
75456;SDS011;64036;48.266;14.192;2023-11-22T04:38:29;3.30;;;2.20;;
75456;SDS011;64036;48.266;14.192;2023-11-22T04:40:55;4.60;;;2.60;;
75456;SDS011;64036;48.266;14.192;2023-11-22T04:43:32;2.60;;;2.00;;
75456;SDS011;64036;48.266;14.192;2023-11-22T04:46:17;3.60;;;2.20;;
75456;SDS011;64036;48.266;14.192;2023-11-22T04:48:54;4.10;;;2.20;;
75456;SDS011;64036;48.266;14.192;2023-11-22T04:52:02;4.60;;;2.60;;
75456;SDS011;64036;48.266;14.192;2023-11-22T04:54:56;4.20;;;2.60;;
75456;SDS011;64036;48.266;14.192;2023-11-22T04:58:02;4.00;;;2.50;;
75456;SDS011;64036;48.266;14.192;2023-11-22T05:01:04;4.70;;;2.80;;
75456;SDS011;64036;48.266;14.192;2023-11-22T05:04:04;3.70;;;2.30;;
75456;SDS011;64036;48.266;14.192;2023-11-22T05:09:41;4.60;;;2.60;;
75456;SDS011;64036;48.266;14.192;2023-11-22T05:12:17;4.50;;;2.60;;
75456;SDS011;64036;48.266;14.192;2023-11-22T05:17:44;3.60;;;2.20;;
75456;SDS011;64036;48.266;14.192;2023-11-22T05:20:20;4.30;;;2.70;;
75456;SDS011;64036;48.266;14.192;2023-11-22T05:22:46;3.90;;;2.40;;
75456;SDS011;64036;48.266;14.192;2023-11-22T05:25:12;4.40;;;2.70;;
75456;SDS011;64036;48.266;14.192;2023-11-22T05:27:38;4.30;;;2.90;;
75456;SDS011;64036;48.266;14.192;2023-11-22T05:30:04;4.50;;;2.80;;
75456;SDS011;64036;48.266;14.192;2023-11-22T05:32:30;5.30;;;2.70;;
75456;SDS011;64036;48.266;14.192;2023-11-22T05:34:59;4.70;;;2.80;;
75456;SDS011;64036;48.266;14.192;2023-11-22T05:37:25;4.30;;;2.50;;
75456;SDS011;64036;48.266;14.192;2023-11-22T05:39:51;4.00;;;2.40;;
75456;SDS011;64036;48.266;14.192;2023-11-22T05:42:17;3.80;;;2.50;;
75456;SDS011;64036;48.266;14.192;2023-11-22T05:44:43;4.20;;;2.60;;
75456;SDS011;64036;48.266;14.192;2023-11-22T05:47:09;3.70;;;2.10;;
75456;SDS011;64036;48.266;14.192;2023-11-22T05:49:35;3.00;;;1.90;;
75456;SDS011;64036;48.266;14.192;2023-11-22T05:52:01;5.80;;;2.90;;
75456;SDS011;64036;48.266;14.192;2023-11-22T05:54:27;4.90;;;2.70;;
75456;SDS011;64036;48.266;14.192;2023-11-22T05:56:53;4.30;;;2.60;;
75456;SDS011;64036;48.266;14.192;2023-11-22T05:59:19;4.70;;;2.70;;
75456;SDS011;64036;48.266;14.192;2023-11-22T06:01:45;3.90;;;2.40;;
75456;SDS011;64036;48.266;14.192;2023-11-22T06:04:11;4.50;;;2.60;;
75456;SDS011;64036;48.266;14.192;2023-11-22T06:06:37;4.00;;;2.40;;
75456;SDS011;64036;48.266;14.192;2023-11-22T06:09:03;4.20;;;2.30;;
75456;SDS011;64036;48.266;14.192;2023-11-22T06:11:30;4.30;;;2.40;;
75456;SDS011;64036;48.266;14.192;2023-11-22T06:13:59;3.40;;;2.30;;
75456;SDS011;64036;48.266;14.192;2023-11-22T06:16:30;3.40;;;2.00;;
75456;SDS011;64036;48.266;14.192;2023-11-22T06:18:56;3.00;;;2.10;;
75456;SDS011;64036;48.266;14.192;2023-11-22T06:21:34;2.90;;;1.90;;
75456;SDS011;64036;48.266;14.192;2023-11-22T06:24:27;3.60;;;2.10;;
75456;SDS011;64036;48.266;14.192;2023-11-22T06:27:05;4.90;;;2.30;;
75456;SDS011;64036;48.266;14.192;2023-11-22T06:30:04;5.60;;;2.40;;
75456;SDS011;64036;48.266;14.192;2023-11-22T06:33:20;3.10;;;2.20;;
75456;SDS011;64036;48.266;14.192;2023-11-22T06:35:56;3.50;;;2.20;;
75456;SDS011;64036;48.266;14.192;2023-11-22T06:38:22;3.30;;;2.10;;
75456;SDS011;64036;48.266;14.192;2023-11-22T06:40:59;4.30;;;2.40;;
75456;SDS011;64036;48.266;14.192;2023-11-22T06:43:26;3.50;;;2.40;;
75456;SDS011;64036;48.266;14.192;2023-11-22T06:45:54;3.30;;;2.20;;
75456;SDS011;64036;48.266;14.192;2023-11-22T06:48:27;3.30;;;2.00;;
75456;SDS011;64036;48.266;14.192;2023-11-22T06:54:10;3.60;;;2.20;;
75456;SDS011;64036;48.266;14.192;2023-11-22T06:56:50;2.70;;;2.10;;
75456;SDS011;64036;48.266;14.192;2023-11-22T06:59:17;2.70;;;1.70;;
75456;SDS011;64036;48.266;14.192;2023-11-22T07:01:46;4.30;;;2.30;;
75456;SDS011;64036;48.266;14.192;2023-11-22T07:04:22;3.50;;;2.40;;
75456;SDS011;64036;48.266;14.192;2023-11-22T07:06:58;3.10;;;2.10;;
75456;SDS011;64036;48.266;14.192;2023-11-22T07:09:27;3.60;;;2.30;;
75456;SDS011;64036;48.266;14.192;2023-11-22T07:11:52;3.60;;;2.50;;
75456;SDS011;64036;48.266;14.192;2023-11-22T07:14:19;4.10;;;2.50;;
75456;SDS011;64036;48.266;14.192;2023-11-22T07:16:49;4.00;;;2.40;;
75456;SDS011;64036;48.266;14.192;2023-11-22T07:19:27;4.00;;;2.40;;
75456;SDS011;64036;48.266;14.192;2023-11-22T07:21:53;3.60;;;2.30;;
75456;SDS011;64036;48.266;14.192;2023-11-22T07:24:23;4.10;;;2.60;;
75456;SDS011;64036;48.266;14.192;2023-11-22T07:26:51;6.50;;;3.00;;
75456;SDS011;64036;48.266;14.192;2023-11-22T07:29:20;5.00;;;3.00;;
75456;SDS011;64036;48.266;14.192;2023-11-22T07:31:46;5.30;;;3.20;;
75456;SDS011;64036;48.266;14.192;2023-11-22T07:34:12;4.20;;;2.70;;
75456;SDS011;64036;48.266;14.192;2023-11-22T07:36:47;4.50;;;2.80;;
75456;SDS011;64036;48.266;14.192;2023-11-22T07:39:16;4.20;;;2.40;;
75456;SDS011;64036;48.266;14.192;2023-11-22T07:44:10;5.00;;;2.80;;
75456;SDS011;64036;48.266;14.192;2023-11-22T07:46:36;4.40;;;2.70;;
75456;SDS011;64036;48.266;14.192;2023-11-22T07:49:02;4.70;;;2.50;;
75456;SDS011;64036;48.266;14.192;2023-11-22T07:51:28;4.30;;;3.00;;
75456;SDS011;64036;48.266;14.192;2023-11-22T07:54:09;5.50;;;3.10;;
75456;SDS011;64036;48.266;14.192;2023-11-22T07:56:34;4.70;;;2.70;;
75456;SDS011;64036;48.266;14.192;2023-11-22T07:59:02;4.40;;;2.60;;
75456;SDS011;64036;48.266;14.192;2023-11-22T08:01:30;6.20;;;3.30;;
75456;SDS011;64036;48.266;14.192;2023-11-22T08:03:57;4.00;;;2.70;;
75456;SDS011;64036;48.266;14.192;2023-11-22T08:06:22;6.00;;;2.60;;
75456;SDS011;64036;48.266;14.192;2023-11-22T08:08:48;3.90;;;2.50;;
75456;SDS011;64036;48.266;14.192;2023-11-22T08:11:14;4.40;;;2.30;;
75456;SDS011;64036;48.266;14.192;2023-11-22T08:13:44;3.20;;;2.10;;
75456;SDS011;64036;48.266;14.192;2023-11-22T08:16:15;3.10;;;1.90;;
75456;SDS011;64036;48.266;14.192;2023-11-22T08:18:45;4.30;;;2.40;;
75456;SDS011;64036;48.266;14.192;2023-11-22T08:21:11;4.00;;;2.50;;
75456;SDS011;64036;48.266;14.192;2023-11-22T08:23:37;6.10;;;3.60;;
75456;SDS011;64036;48.266;14.192;2023-11-22T08:26:03;6.40;;;3.50;;
75456;SDS011;64036;48.266;14.192;2023-11-22T08:28:39;4.60;;;2.70;;
75456;SDS011;64036;48.266;14.192;2023-11-22T08:31:05;5.60;;;3.10;;
75456;SDS011;64036;48.266;14.192;2023-11-22T08:33:35;5.10;;;3.20;;
75456;SDS011;64036;48.266;14.192;2023-11-22T08:36:02;6.20;;;3.50;;
75456;SDS011;64036;48.266;14.192;2023-11-22T08:38:30;6.10;;;2.90;;
75456;SDS011;64036;48.266;14.192;2023-11-22T08:41:05;6.40;;;2.80;;
75456;SDS011;64036;48.266;14.192;2023-11-22T08:43:32;4.20;;;2.80;;
75456;SDS011;64036;48.266;14.192;2023-11-22T08:46:03;4.30;;;2.90;;
75456;SDS011;64036;48.266;14.192;2023-11-22T08:48:47;4.90;;;2.60;;
75456;SDS011;64036;48.266;14.192;2023-11-22T08:51:22;4.00;;;2.40;;
75456;SDS011;64036;48.266;14.192;2023-11-22T08:53:48;3.80;;;2.40;;
75456;SDS011;64036;48.266;14.192;2023-11-22T08:56:14;3.90;;;2.10;;
75456;SDS011;64036;48.266;14.192;2023-11-22T08:58:41;2.90;;;2.10;;
75456;SDS011;64036;48.266;14.192;2023-11-22T09:01:08;4.60;;;2.40;;
75456;SDS011;64036;48.266;14.192;2023-11-22T09:03:34;3.10;;;2.20;;
75456;SDS011;64036;48.266;14.192;2023-11-22T09:06:00;3.50;;;2.30;;
75456;SDS011;64036;48.266;14.192;2023-11-22T09:08:26;3.80;;;2.40;;
75456;SDS011;64036;48.266;14.192;2023-11-22T09:10:55;3.90;;;2.60;;
75456;SDS011;64036;48.266;14.192;2023-11-22T09:13:20;5.10;;;2.80;;
75456;SDS011;64036;48.266;14.192;2023-11-22T09:15:51;4.50;;;2.60;;
75456;SDS011;64036;48.266;14.192;2023-11-22T09:18:17;3.80;;;2.80;;
75456;SDS011;64036;48.266;14.192;2023-11-22T09:20:42;4.70;;;2.90;;
75456;SDS011;64036;48.266;14.192;2023-11-22T09:23:11;4.90;;;2.80;;
75456;SDS011;64036;48.266;14.192;2023-11-22T09:25:39;4.30;;;2.50;;
75456;SDS011;64036;48.266;14.192;2023-11-22T09:28:05;4.40;;;2.90;;
75456;SDS011;64036;48.266;14.192;2023-11-22T09:30:32;4.10;;;2.80;;
75456;SDS011;64036;48.266;14.192;2023-11-22T09:33:02;5.60;;;2.90;;
75456;SDS011;64036;48.266;14.192;2023-11-22T09:35:29;5.40;;;3.20;;
75456;SDS011;64036;48.266;14.192;2023-11-22T09:38:00;4.60;;;3.00;;
75456;SDS011;64036;48.266;14.192;2023-11-22T09:40:28;5.00;;;3.00;;
75456;SDS011;64036;48.266;14.192;2023-11-22T09:42:55;5.00;;;3.10;;
75456;SDS011;64036;48.266;14.192;2023-11-22T09:45:23;6.30;;;3.40;;
75456;SDS011;64036;48.266;14.192;2023-11-22T09:47:50;5.80;;;3.50;;
75456;SDS011;64036;48.266;14.192;2023-11-22T09:50:26;5.60;;;3.50;;
75456;SDS011;64036;48.266;14.192;2023-11-22T09:53:02;5.90;;;3.50;;
75456;SDS011;64036;48.266;14.192;2023-11-22T09:55:36;5.50;;;3.50;;
75456;SDS011;64036;48.266;14.192;2023-11-22T09:58:03;6.00;;;4.10;;
75456;SDS011;64036;48.266;14.192;2023-11-22T10:00:29;6.30;;;3.80;;
75456;SDS011;64036;48.266;14.192;2023-11-22T10:02:57;6.10;;;3.40;;
75456;SDS011;64036;48.266;14.192;2023-11-22T10:05:24;6.20;;;4.00;;
75456;SDS011;64036;48.266;14.192;2023-11-22T10:07:54;6.70;;;3.90;;
75456;SDS011;64036;48.266;14.192;2023-11-22T10:10:21;6.90;;;3.60;;
75456;SDS011;64036;48.266;14.192;2023-11-22T10:12:53;5.60;;;3.40;;
75456;SDS011;64036;48.266;14.192;2023-11-22T10:15:21;5.20;;;3.40;;
75456;SDS011;64036;48.266;14.192;2023-11-22T10:17:55;5.70;;;3.40;;
75456;SDS011;64036;48.266;14.192;2023-11-22T10:23:00;6.30;;;3.50;;
75456;SDS011;64036;48.266;14.192;2023-11-22T10:25:28;5.80;;;3.60;;
75456;SDS011;64036;48.266;14.192;2023-11-22T10:27:57;6.70;;;3.60;;
75456;SDS011;64036;48.266;14.192;2023-11-22T10:30:23;7.20;;;3.90;;
75456;SDS011;64036;48.266;14.192;2023-11-22T10:32:52;5.50;;;3.20;;
75456;SDS011;64036;48.266;14.192;2023-11-22T10:35:21;5.70;;;3.40;;
75456;SDS011;64036;48.266;14.192;2023-11-22T10:37:47;4.90;;;2.80;;
75456;SDS011;64036;48.266;14.192;2023-11-22T10:40:14;6.50;;;3.80;;
75456;SDS011;64036;48.266;14.192;2023-11-22T10:42:41;6.50;;;3.70;;
75456;SDS011;64036;48.266;14.192;2023-11-22T10:47:39;5.90;;;3.10;;
75456;SDS011;64036;48.266;14.192;2023-11-22T10:50:10;5.40;;;3.10;;
75456;SDS011;64036;48.266;14.192;2023-11-22T10:52:41;5.50;;;3.40;;
75456;SDS011;64036;48.266;14.192;2023-11-22T10:55:14;4.90;;;3.00;;
75456;SDS011;64036;48.266;14.192;2023-11-22T10:57:50;5.90;;;3.20;;
75456;SDS011;64036;48.266;14.192;2023-11-22T11:00:19;5.10;;;3.20;;
75456;SDS011;64036;48.266;14.192;2023-11-22T11:02:54;5.50;;;3.20;;
75456;SDS011;64036;48.266;14.192;2023-11-22T11:05:30;4.60;;;2.90;;
75456;SDS011;64036;48.266;14.192;2023-11-22T11:08:25;4.60;;;3.00;;
75456;SDS011;64036;48.266;14.192;2023-11-22T11:10:53;5.90;;;3.70;;
75456;SDS011;64036;48.266;14.192;2023-11-22T11:13:21;7.50;;;3.40;;
75456;SDS011;64036;48.266;14.192;2023-11-22T11:15:49;4.70;;;3.00;;
75456;SDS011;64036;48.266;14.192;2023-11-22T11:18:16;5.10;;;3.10;;
75456;SDS011;64036;48.266;14.192;2023-11-22T11:21:04;5.10;;;2.90;;
75456;SDS011;64036;48.266;14.192;2023-11-22T11:23:41;5.70;;;3.20;;
75456;SDS011;64036;48.266;14.192;2023-11-22T11:26:26;5.10;;;3.00;;
75456;SDS011;64036;48.266;14.192;2023-11-22T11:29:35;5.90;;;3.40;;
75456;SDS011;64036;48.266;14.192;2023-11-22T11:32:36;4.40;;;2.70;;
75456;SDS011;64036;48.266;14.192;2023-11-22T11:35:13;5.80;;;3.30;;
75456;SDS011;64036;48.266;14.192;2023-11-22T11:40:31;5.20;;;2.80;;
75456;SDS011;64036;48.266;14.192;2023-11-22T11:42:59;5.20;;;2.60;;
75456;SDS011;64036;48.266;14.192;2023-11-22T11:45:27;4.30;;;2.90;;
75456;SDS011;64036;48.266;14.192;2023-11-22T11:47:53;5.30;;;3.00;;
75456;SDS011;64036;48.266;14.192;2023-11-22T11:50:26;6.10;;;3.20;;
75456;SDS011;64036;48.266;14.192;2023-11-22T11:52:55;5.10;;;3.10;;
75456;SDS011;64036;48.266;14.192;2023-11-22T11:55:21;4.70;;;2.80;;
75456;SDS011;64036;48.266;14.192;2023-11-22T11:57:46;5.20;;;3.10;;
75456;SDS011;64036;48.266;14.192;2023-11-22T12:00:14;4.80;;;3.00;;
75456;SDS011;64036;48.266;14.192;2023-11-22T12:02:43;3.80;;;2.50;;
75456;SDS011;64036;48.266;14.192;2023-11-22T12:05:09;4.60;;;3.00;;
75456;SDS011;64036;48.266;14.192;2023-11-22T12:07:35;4.60;;;2.80;;
75456;SDS011;64036;48.266;14.192;2023-11-22T12:10:03;6.20;;;3.10;;
75456;SDS011;64036;48.266;14.192;2023-11-22T12:12:32;4.60;;;2.80;;
75456;SDS011;64036;48.266;14.192;2023-11-22T12:14:58;5.60;;;3.10;;
75456;SDS011;64036;48.266;14.192;2023-11-22T12:17:25;3.70;;;2.20;;
75456;SDS011;64036;48.266;14.192;2023-11-22T12:19:52;5.30;;;3.20;;
75456;SDS011;64036;48.266;14.192;2023-11-22T12:22:19;5.00;;;3.30;;
75456;SDS011;64036;48.266;14.192;2023-11-22T12:24:46;5.70;;;3.40;;
75456;SDS011;64036;48.266;14.192;2023-11-22T12:27:11;5.60;;;3.30;;
75456;SDS011;64036;48.266;14.192;2023-11-22T12:29:37;5.40;;;3.10;;
75456;SDS011;64036;48.266;14.192;2023-11-22T12:32:07;5.10;;;3.20;;
75456;SDS011;64036;48.266;14.192;2023-11-22T12:34:33;7.30;;;3.50;;
75456;SDS011;64036;48.266;14.192;2023-11-22T12:37:07;5.80;;;3.20;;
75456;SDS011;64036;48.266;14.192;2023-11-22T12:39:36;4.80;;;3.30;;
75456;SDS011;64036;48.266;14.192;2023-11-22T12:42:03;4.00;;;2.70;;
75456;SDS011;64036;48.266;14.192;2023-11-22T12:44:50;5.10;;;3.00;;
75456;SDS011;64036;48.266;14.192;2023-11-22T12:47:53;6.70;;;3.30;;
75456;SDS011;64036;48.266;14.192;2023-11-22T12:50:38;5.10;;;3.00;;
75456;SDS011;64036;48.266;14.192;2023-11-22T12:55:50;4.80;;;3.00;;
75456;SDS011;64036;48.266;14.192;2023-11-22T12:58:23;5.30;;;2.90;;
75456;SDS011;64036;48.266;14.192;2023-11-22T13:00:55;4.80;;;2.70;;
75456;SDS011;64036;48.266;14.192;2023-11-22T13:03:26;5.50;;;3.10;;
75456;SDS011;64036;48.266;14.192;2023-11-22T13:05:53;5.60;;;2.90;;
75456;SDS011;64036;48.266;14.192;2023-11-22T13:08:19;6.10;;;3.30;;
75456;SDS011;64036;48.266;14.192;2023-11-22T13:10:50;5.50;;;3.00;;
75456;SDS011;64036;48.266;14.192;2023-11-22T13:13:22;5.10;;;3.30;;
75456;SDS011;64036;48.266;14.192;2023-11-22T13:15:50;4.10;;;2.50;;
75456;SDS011;64036;48.266;14.192;2023-11-22T13:18:21;6.40;;;3.30;;
75456;SDS011;64036;48.266;14.192;2023-11-22T13:20:47;5.40;;;3.30;;
75456;SDS011;64036;48.266;14.192;2023-11-22T13:23:14;5.00;;;2.90;;
75456;SDS011;64036;48.266;14.192;2023-11-22T13:25:40;4.80;;;2.70;;
75456;SDS011;64036;48.266;14.192;2023-11-22T13:28:13;6.20;;;3.80;;
75456;SDS011;64036;48.266;14.192;2023-11-22T13:30:42;6.40;;;3.20;;
75456;SDS011;64036;48.266;14.192;2023-11-22T13:33:11;5.10;;;3.10;;
75456;SDS011;64036;48.266;14.192;2023-11-22T13:35:42;5.80;;;3.80;;
75456;SDS011;64036;48.266;14.192;2023-11-22T13:38:12;5.20;;;3.20;;
75456;SDS011;64036;48.266;14.192;2023-11-22T13:40:39;6.20;;;3.10;;
75456;SDS011;64036;48.266;14.192;2023-11-22T13:43:06;5.20;;;2.90;;
75456;SDS011;64036;48.266;14.192;2023-11-22T13:45:35;5.30;;;3.10;;
75456;SDS011;64036;48.266;14.192;2023-11-22T13:48:03;5.80;;;3.30;;
75456;SDS011;64036;48.266;14.192;2023-11-22T13:50:35;5.60;;;3.10;;
75456;SDS011;64036;48.266;14.192;2023-11-22T13:53:04;6.00;;;3.20;;
75456;SDS011;64036;48.266;14.192;2023-11-22T13:55:38;5.30;;;3.40;;
75456;SDS011;64036;48.266;14.192;2023-11-22T13:58:12;6.30;;;3.70;;
75456;SDS011;64036;48.266;14.192;2023-11-22T14:00:38;5.40;;;3.30;;
75456;SDS011;64036;48.266;14.192;2023-11-22T14:03:04;6.30;;;4.10;;
75456;SDS011;64036;48.266;14.192;2023-11-22T14:05:36;6.70;;;3.80;;
75456;SDS011;64036;48.266;14.192;2023-11-22T14:08:04;6.00;;;3.20;;
75456;SDS011;64036;48.266;14.192;2023-11-22T14:10:31;5.80;;;3.50;;
75456;SDS011;64036;48.266;14.192;2023-11-22T14:13:02;5.30;;;3.10;;
75456;SDS011;64036;48.266;14.192;2023-11-22T14:15:30;5.40;;;3.10;;
75456;SDS011;64036;48.266;14.192;2023-11-22T14:18:10;5.60;;;3.40;;
75456;SDS011;64036;48.266;14.192;2023-11-22T14:20:38;5.40;;;3.20;;
75456;SDS011;64036;48.266;14.192;2023-11-22T14:23:05;5.00;;;3.00;;
75456;SDS011;64036;48.266;14.192;2023-11-22T14:25:33;6.70;;;3.50;;
75456;SDS011;64036;48.266;14.192;2023-11-22T14:27:59;7.10;;;3.60;;
75456;SDS011;64036;48.266;14.192;2023-11-22T14:30:25;6.20;;;3.60;;
75456;SDS011;64036;48.266;14.192;2023-11-22T14:32:53;5.90;;;3.60;;
75456;SDS011;64036;48.266;14.192;2023-11-22T14:35:25;5.70;;;3.50;;
75456;SDS011;64036;48.266;14.192;2023-11-22T14:37:51;5.40;;;3.00;;
75456;SDS011;64036;48.266;14.192;2023-11-22T14:40:18;6.00;;;3.30;;
75456;SDS011;64036;48.266;14.192;2023-11-22T14:42:46;5.20;;;3.30;;
75456;SDS011;64036;48.266;14.192;2023-11-22T14:45:22;5.10;;;2.90;;
75456;SDS011;64036;48.266;14.192;2023-11-22T14:47:51;5.40;;;3.40;;
75456;SDS011;64036;48.266;14.192;2023-11-22T14:50:17;5.20;;;3.10;;
75456;SDS011;64036;48.266;14.192;2023-11-22T14:52:48;5.50;;;3.20;;
75456;SDS011;64036;48.266;14.192;2023-11-22T14:55:18;5.90;;;3.40;;
75456;SDS011;64036;48.266;14.192;2023-11-22T14:57:46;5.90;;;3.40;;
75456;SDS011;64036;48.266;14.192;2023-11-22T15:00:23;5.60;;;3.00;;
75456;SDS011;64036;48.266;14.192;2023-11-22T15:02:59;6.10;;;3.40;;
75456;SDS011;64036;48.266;14.192;2023-11-22T15:05:25;5.30;;;2.80;;
75456;SDS011;64036;48.266;14.192;2023-11-22T15:07:52;4.40;;;2.90;;
75456;SDS011;64036;48.266;14.192;2023-11-22T15:10:22;5.70;;;3.50;;
75456;SDS011;64036;48.266;14.192;2023-11-22T15:15:46;4.70;;;2.80;;
75456;SDS011;64036;48.266;14.192;2023-11-22T15:18:15;6.10;;;3.10;;
75456;SDS011;64036;48.266;14.192;2023-11-22T15:23:38;4.80;;;2.90;;
75456;SDS011;64036;48.266;14.192;2023-11-22T15:26:15;5.40;;;3.00;;
75456;SDS011;64036;48.266;14.192;2023-11-22T15:28:52;5.10;;;2.90;;